createdAt,value
2018-11-03T00:01:59.989Z,100861.28
2018-11-03T00:04:28.702Z,100860.41
2018-11-03T00:06:57.464Z,100851.28
2018-11-03T00:09:26.027Z,100854.91
2018-11-03T00:11:54.584Z,100855.08
2018-11-03T00:14:23.169Z,100853.87
2018-11-03T00:16:51.793Z,100845.61
2018-11-03T00:19:20.334Z,100852.72
2018-11-03T00:21:48.931Z,100849.24
2018-11-03T00:24:17.646Z,100839.70
2018-11-03T00:26:46.355Z,100841.52
2018-11-03T00:29:15.592Z,100840.69
2018-11-03T00:31:44.093Z,100838.98
2018-11-03T00:34:12.871Z,100844.77
2018-11-03T00:36:41.317Z,100840.84
2018-11-03T00:39:11.738Z,100848.27
2018-11-03T00:41:40.573Z,100849.59
2018-11-03T00:44:09.692Z,100849.59
2018-11-03T00:46:38.725Z,100854.39
2018-11-03T00:49:07.471Z,100854.34
2018-11-03T00:51:36.130Z,100854.27
2018-11-03T00:54:04.748Z,100856.38
2018-11-03T00:56:33.372Z,100863.06
2018-11-03T00:59:02.068Z,100854.39
2018-11-03T01:01:30.583Z,100852.81
2018-11-03T01:03:59.070Z,100859.15
2018-11-03T01:06:28.204Z,100865.83
2018-11-03T01:08:56.864Z,100868.59
2018-11-03T01:11:25.478Z,100872.21
2018-11-03T01:13:54.022Z,100868.88
2018-11-03T01:16:22.425Z,100858.95
2018-11-03T01:18:51.070Z,100856.98
2018-11-03T01:21:19.810Z,100858.00
2018-11-03T01:23:48.559Z,100862.48
2018-11-03T01:26:17.069Z,100863.53
2018-11-03T01:28:45.650Z,100879.47
2018-11-03T01:31:14.205Z,100890.06
2018-11-03T01:33:42.836Z,100896.27
2018-11-03T01:36:11.533Z,100889.27
2018-11-03T01:38:40.249Z,100888.42
2018-11-03T01:41:08.881Z,100878.45
2018-11-03T01:43:37.445Z,100879.39
2018-11-03T01:46:06.330Z,100884.31
2018-11-03T01:48:35.063Z,100882.13
2018-11-03T01:51:03.787Z,100884.80
2018-11-03T01:53:32.454Z,100895.88
2018-11-03T01:56:00.954Z,100898.52
2018-11-03T01:58:29.567Z,100880.87
2018-11-03T02:00:58.069Z,100873.87
2018-11-03T02:03:26.645Z,100876.50
2018-11-03T02:05:55.114Z,100889.28
2018-11-03T02:08:23.593Z,100895.00
2018-11-03T02:10:52.204Z,100890.18
2018-11-03T02:13:20.649Z,100872.61
2018-11-03T02:15:49.298Z,100863.86
2018-11-03T02:18:17.881Z,100861.67
2018-11-03T02:22:15.691Z,100862.16
2018-11-03T02:24:44.288Z,100867.02
2018-11-03T02:27:12.900Z,100868.79
2018-11-03T02:29:41.444Z,100865.73
2018-11-03T02:32:09.939Z,100867.50
2018-11-03T02:34:38.415Z,100861.39
2018-11-03T02:37:06.941Z,100870.17
2018-11-03T02:39:35.703Z,100881.63
2018-11-03T02:42:04.257Z,100888.25
2018-11-03T02:44:33.699Z,100883.39
2018-11-03T02:47:02.126Z,100876.38
2018-11-03T02:49:30.591Z,100861.88
2018-11-03T02:51:59.549Z,100869.34
2018-11-03T02:54:28.069Z,100878.60
2018-11-03T02:56:56.665Z,100887.00
2018-11-03T02:59:25.305Z,100885.27
2018-11-03T03:01:53.814Z,100870.75
2018-11-03T03:04:22.372Z,100866.38
2018-11-03T03:06:50.888Z,100876.48
2018-11-03T03:09:19.957Z,100875.61
2018-11-03T03:11:48.461Z,100876.48
2018-11-03T03:14:17.105Z,100871.66
2018-11-03T03:16:45.815Z,100870.75
2018-11-03T03:19:14.478Z,100866.38
2018-11-03T03:21:43.105Z,100868.11
2018-11-03T03:24:11.728Z,100868.11
2018-11-03T03:26:40.353Z,100870.75
2018-11-03T03:29:10.203Z,100871.66
2018-11-03T03:31:38.595Z,100871.66
2018-11-03T03:34:07.187Z,100881.30
2018-11-03T03:36:35.737Z,100879.56
2018-11-03T03:39:05.825Z,100881.30
2018-11-03T03:41:34.725Z,100875.13
2018-11-03T03:44:03.291Z,100867.70
2018-11-03T03:46:32.254Z,100874.71
2018-11-03T03:49:00.725Z,100878.66
2018-11-03T03:51:29.313Z,100876.06
2018-11-03T03:53:58.014Z,100879.56
2018-11-03T03:56:26.481Z,100883.52
2018-11-03T03:58:54.924Z,100886.61
2018-11-03T04:01:23.442Z,100892.75
2018-11-03T04:03:52.163Z,100889.22
2018-11-03T04:06:21.013Z,100884.84
2018-11-03T04:08:49.843Z,100884.39
2018-11-03T04:11:18.513Z,100889.22
2018-11-03T04:13:47.139Z,100893.17
2018-11-03T04:16:15.638Z,100887.52
2018-11-03T04:18:44.347Z,100881.78
2018-11-03T04:21:16.955Z,100885.74
2018-11-03T04:23:45.550Z,100882.72
2018-11-03T04:26:14.211Z,100874.39
2018-11-03T04:28:42.977Z,100873.97
2018-11-03T04:31:11.612Z,100870.02
2018-11-03T04:33:40.180Z,100868.70
2018-11-03T04:36:08.649Z,100869.15
2018-11-03T04:38:37.228Z,100866.52
2018-11-03T04:41:06.364Z,100869.59
2018-11-03T04:43:34.969Z,100876.64
2018-11-03T04:46:03.585Z,100882.78
2018-11-03T04:48:32.253Z,100879.66
2018-11-03T04:51:00.854Z,100880.56
2018-11-03T04:53:29.304Z,100887.13
2018-11-03T04:55:57.924Z,100899.02
2018-11-03T04:58:26.471Z,100905.62
2018-11-03T05:00:55.102Z,100909.58
2018-11-03T05:03:23.908Z,100902.56
2018-11-03T05:05:52.590Z,100904.33
2018-11-03T05:08:21.334Z,100909.64
2018-11-03T05:10:49.973Z,100916.23
2018-11-03T05:13:18.519Z,100913.59
2018-11-03T05:15:47.308Z,100907.00
2018-11-03T05:18:15.809Z,100902.63
2018-11-03T05:20:44.777Z,100899.98
2018-11-03T05:23:13.296Z,100899.15
2018-11-03T05:25:42.502Z,100901.37
2018-11-03T05:28:11.065Z,100909.70
2018-11-03T05:30:40.385Z,100920.25
2018-11-03T05:33:08.908Z,100920.25
2018-11-03T05:35:37.434Z,100923.78
2018-11-03T05:38:07.269Z,100931.69
2018-11-03T05:40:35.994Z,100929.89
2018-11-03T05:43:04.949Z,100937.80
2018-11-03T05:45:33.827Z,100944.84
2018-11-03T05:48:02.417Z,100951.41
2018-11-03T05:50:31.274Z,100954.47
2018-11-03T05:52:59.850Z,100953.56
2018-11-03T05:55:28.366Z,100953.98
2018-11-03T05:57:57.760Z,100960.58
2018-11-03T06:00:28.293Z,100971.12
2018-11-03T06:02:58.492Z,100970.23
2018-11-03T06:05:27.236Z,100968.07
2018-11-03T06:07:56.174Z,100968.05
2018-11-03T06:10:24.826Z,100973.77
2018-11-03T06:12:53.517Z,100965.44
2018-11-03T06:15:23.142Z,100969.81
2018-11-03T06:17:51.684Z,100967.59
2018-11-03T06:20:20.497Z,100979.05
2018-11-03T06:22:48.949Z,100993.97
2018-11-03T06:25:18.454Z,100997.92
2018-11-03T06:27:47.008Z,100997.92
2018-11-03T06:30:15.589Z,101012.40
2018-11-03T06:32:44.215Z,101016.36
2018-11-03T06:35:12.880Z,101018.55
2018-11-03T06:37:41.448Z,101026.39
2018-11-03T06:40:10.298Z,101018.99
2018-11-03T06:42:39.546Z,101015.39
2018-11-03T06:45:09.108Z,101018.03
2018-11-03T06:47:37.757Z,101020.67
2018-11-03T06:50:07.443Z,101015.81
2018-11-03T06:52:36.042Z,101011.86
2018-11-03T06:55:04.730Z,101021.48
2018-11-03T06:57:33.272Z,101037.28
2018-11-03T07:00:01.900Z,101031.61
2018-11-03T07:02:30.494Z,101037.28
2018-11-03T07:04:59.144Z,101029.34
2018-11-03T07:07:27.870Z,101025.41
2018-11-03T07:09:56.597Z,101038.13
2018-11-03T07:12:25.297Z,101044.72
2018-11-03T07:14:54.662Z,101044.72
2018-11-03T07:17:23.253Z,101049.99
2018-11-03T07:19:51.888Z,101055.27
2018-11-03T07:22:20.612Z,101054.37
2018-11-03T07:24:49.222Z,101056.11
2018-11-03T07:27:17.761Z,101053.47
2018-11-03T07:29:46.313Z,101050.80
2018-11-03T07:32:14.841Z,101041.13
2018-11-03T07:34:43.354Z,101053.47
2018-11-03T07:37:11.883Z,101060.06
2018-11-03T07:39:40.526Z,101059.62
2018-11-03T07:42:09.094Z,101062.22
2018-11-03T07:44:37.846Z,101068.82
2018-11-03T07:47:06.551Z,101070.56
2018-11-03T07:49:35.212Z,101073.63
2018-11-03T07:52:03.654Z,101071.79
2018-11-03T07:54:32.393Z,101064.30
2018-11-03T07:57:00.901Z,101059.86
2018-11-03T07:59:29.742Z,101058.48
2018-11-03T08:01:58.447Z,101059.33
2018-11-03T08:04:27.890Z,101056.21
2018-11-03T08:06:56.526Z,101054.86
2018-11-03T08:09:25.074Z,101051.35
2018-11-03T08:11:53.930Z,101060.59
2018-11-03T08:14:22.374Z,101067.19
2018-11-03T08:16:50.871Z,101063.70
2018-11-03T08:19:19.802Z,101067.63
2018-11-03T08:21:48.630Z,101050.87
2018-11-03T08:24:17.411Z,101053.81
2018-11-03T08:26:45.865Z,101044.06
2018-11-03T08:29:14.477Z,101049.61
2018-11-03T08:31:43.210Z,101046.84
2018-11-03T08:34:11.994Z,101050.26
2018-11-03T08:36:41.254Z,101050.26
2018-11-03T08:39:11.271Z,101053.80
2018-11-03T08:41:39.993Z,101060.40
2018-11-03T08:44:08.982Z,101054.25
2018-11-03T08:46:37.901Z,101046.20
2018-11-03T08:49:06.862Z,101042.53
2018-11-03T08:51:35.752Z,101043.79
2018-11-03T08:54:04.543Z,101048.17
2018-11-03T08:56:33.325Z,101053.38
2018-11-03T08:59:01.871Z,101066.59
2018-11-03T09:01:30.463Z,101061.30
2018-11-03T09:03:59.086Z,101059.86
2018-11-03T09:06:27.838Z,101056.60
2018-11-03T09:08:56.437Z,101047.67
2018-11-03T09:11:25.040Z,101054.98
2018-11-03T09:13:53.556Z,101057.48
2018-11-03T09:16:22.173Z,101068.92
2018-11-03T09:18:51.383Z,101064.44
2018-11-03T09:21:19.937Z,101068.75
2018-11-03T09:23:48.535Z,101061.24
2018-11-03T09:26:17.073Z,101062.14
2018-11-03T09:28:45.744Z,101061.17
2018-11-03T09:31:14.571Z,101069.59
2018-11-03T09:33:43.134Z,101072.16
2018-11-03T09:36:11.743Z,101074.80
2018-11-03T09:38:40.662Z,101080.47
2018-11-03T09:41:09.891Z,101075.53
2018-11-03T09:43:38.519Z,101066.45
2018-11-03T09:46:07.557Z,101071.25
2018-11-03T09:48:36.315Z,101073.45
2018-11-03T09:51:05.244Z,101072.92
2018-11-03T09:53:33.965Z,101074.63
2018-11-03T09:56:02.686Z,101073.27
2018-11-03T09:58:31.605Z,101078.89
2018-11-03T10:01:00.519Z,101088.95
2018-11-03T10:03:29.395Z,101083.09
2018-11-03T10:05:58.094Z,101079.36
2018-11-03T10:08:27.028Z,101081.44
2018-11-03T10:10:55.866Z,101081.37
2018-11-03T10:13:24.542Z,101080.39
2018-11-03T10:15:53.319Z,101085.11
2018-11-03T10:18:22.373Z,101070.70
2018-11-03T10:20:51.321Z,101069.27
2018-11-03T10:23:20.034Z,101061.91
2018-11-03T10:25:48.547Z,101071.66
2018-11-03T10:28:17.209Z,101075.77
2018-11-03T10:30:45.821Z,101077.36
2018-11-03T10:33:14.543Z,101079.14
2018-11-03T10:35:43.257Z,101083.78
2018-11-03T10:38:11.857Z,101085.75
2018-11-03T10:40:40.382Z,101085.34
2018-11-03T10:43:09.054Z,101084.02
2018-11-03T10:45:37.763Z,101084.43
2018-11-03T10:48:06.505Z,101082.58
2018-11-03T10:50:35.068Z,101081.14
2018-11-03T10:53:03.732Z,101076.49
2018-11-03T11:02:25.071Z,101072.87
2018-11-03T11:04:58.982Z,101073.70
2018-11-03T11:07:32.984Z,101074.61
2018-11-03T11:10:06.720Z,101079.41
2018-11-03T11:13:41.539Z,101066.90
2018-11-03T11:16:11.083Z,101073.27
2018-11-03T11:18:39.777Z,101072.70
2018-11-03T11:21:09.428Z,101067.05
2018-11-03T11:23:38.004Z,101065.87
2018-11-03T11:26:06.638Z,101064.95
2018-11-03T11:28:35.346Z,101055.44
2018-11-03T11:31:04.013Z,101055.81
2018-11-03T11:33:32.598Z,101059.53
2018-11-03T11:36:01.184Z,101067.22
2018-11-03T11:38:29.802Z,101066.39
2018-11-03T11:40:58.579Z,101064.57
2018-11-03T11:43:27.881Z,101065.81
2018-11-03T11:45:56.453Z,101064.86
2018-11-03T11:48:25.061Z,101063.22
2018-11-03T11:50:53.793Z,101064.88
2018-11-03T11:53:22.723Z,101056.31
2018-11-03T11:55:51.299Z,101062.59
2018-11-03T11:58:19.780Z,101055.50
2018-11-03T12:00:48.643Z,101054.75
2018-11-03T12:03:17.204Z,101060.23
2018-11-03T12:05:45.941Z,101056.99
2018-11-03T12:08:15.211Z,101051.52
2018-11-03T12:10:43.928Z,101047.40
2018-11-03T12:13:12.562Z,101049.36
2018-11-03T12:15:41.067Z,101049.69
2018-11-03T12:18:09.887Z,101051.92
2018-11-03T12:20:38.624Z,101058.55
2018-11-03T12:23:07.284Z,101058.31
2018-11-03T12:25:36.281Z,101050.58
2018-11-03T12:28:05.088Z,101049.88
2018-11-03T12:30:33.713Z,101040.20
2018-11-03T12:33:02.541Z,101036.92
2018-11-03T12:35:31.248Z,101036.02
2018-11-03T12:38:00.088Z,101033.69
2018-11-03T12:40:28.759Z,101035.75
2018-11-03T12:42:57.407Z,101035.94
2018-11-03T12:45:25.980Z,101035.96
2018-11-03T12:47:54.785Z,101038.43
2018-11-03T12:50:23.298Z,101038.90
2018-11-03T12:52:51.918Z,101039.81
2018-11-03T12:55:20.674Z,101033.98
2018-11-03T12:57:49.335Z,101038.64
2018-11-03T13:00:18.114Z,101042.31
2018-11-03T13:02:48.086Z,101042.31
2018-11-03T13:05:16.982Z,101050.70
2018-11-03T13:07:46.191Z,101047.15
2018-11-03T13:10:14.827Z,101041.86
2018-11-03T13:12:43.772Z,101038.72
2018-11-03T13:15:13.807Z,101034.97
2018-11-03T13:17:42.765Z,101038.11
2018-11-03T13:20:12.713Z,101044.02
2018-11-03T13:22:41.846Z,101036.23
2018-11-03T13:25:11.455Z,101034.99
2018-11-03T13:27:40.658Z,101024.98
2018-11-03T13:30:11.618Z,101029.37
2018-11-03T13:32:40.492Z,101026.23
2018-11-03T13:35:10.244Z,101032.80
2018-11-03T13:37:39.138Z,101034.16
2018-11-03T13:40:09.012Z,101031.89
2018-11-03T13:42:37.517Z,101037.22
2018-11-03T13:45:07.529Z,101032.02
2018-11-03T13:47:36.931Z,101037.41
2018-11-03T13:50:10.478Z,101040.59
2018-11-03T13:52:39.341Z,101032.77
2018-11-03T13:55:08.724Z,101033.77
2018-11-03T13:57:37.503Z,101033.05
2018-11-03T14:00:06.954Z,101034.97
2018-11-03T14:02:35.804Z,101042.98
2018-11-03T14:05:04.425Z,101031.65
2018-11-03T14:07:33.415Z,101037.01
2018-11-03T14:10:03.007Z,101038.48
2018-11-03T14:12:31.596Z,101039.88
2018-11-03T14:15:00.111Z,101039.05
2018-11-03T14:17:28.788Z,101046.59
2018-11-03T14:19:57.365Z,101050.18
2018-11-03T14:22:25.870Z,101051.12
2018-11-03T14:24:54.778Z,101045.41
2018-11-03T14:27:23.403Z,101050.70
2018-11-03T14:29:51.916Z,101045.83
2018-11-03T14:32:20.461Z,101038.39
2018-11-03T14:34:49.052Z,101045.07
2018-11-03T14:37:17.592Z,101042.02
2018-11-03T14:39:46.158Z,101043.41
2018-11-03T14:42:14.886Z,101040.77
2018-11-03T14:44:43.502Z,101035.02
2018-11-03T14:47:12.517Z,101040.34
2018-11-03T14:49:41.166Z,101044.80
2018-11-03T14:52:10.066Z,101042.64
2018-11-03T14:54:38.823Z,101043.16
2018-11-03T14:57:07.702Z,101041.42
2018-11-03T14:59:36.492Z,101037.05
2018-11-03T15:02:05.038Z,101041.49
2018-11-03T15:04:33.662Z,101047.69
2018-11-03T15:07:02.522Z,101037.98
2018-11-03T15:09:31.323Z,101037.11
2018-11-03T15:12:00.165Z,101045.48
2018-11-03T15:14:28.937Z,101038.05
2018-11-03T15:16:57.511Z,101039.83
2018-11-03T15:19:26.114Z,101040.24
2018-11-03T15:21:54.913Z,101048.66
2018-11-03T15:24:23.701Z,101051.72
2018-11-03T15:26:52.777Z,101052.20
2018-11-03T15:29:21.373Z,101053.94
2018-11-03T15:31:49.938Z,101058.31
2018-11-03T15:34:18.595Z,101057.00
2018-11-03T15:36:47.487Z,101060.96
2018-11-03T15:39:16.072Z,101061.87
2018-11-03T15:41:44.617Z,101069.38
2018-11-03T15:44:13.334Z,101080.84
2018-11-03T15:46:42.351Z,101081.30
2018-11-03T15:49:11.410Z,101083.06
2018-11-03T15:51:40.050Z,101088.80
2018-11-03T15:54:09.834Z,101092.80
2018-11-03T15:56:38.452Z,101090.58
2018-11-03T15:59:07.215Z,101093.64
2018-11-03T16:01:36.944Z,101089.25
2018-11-03T16:04:05.944Z,101094.13
2018-11-03T16:06:34.389Z,101098.95
2018-11-03T16:09:03.331Z,101095.86
2018-11-03T16:11:32.221Z,101097.60
2018-11-03T16:14:00.914Z,101101.11
2018-11-03T16:16:29.888Z,101097.18
2018-11-03T16:18:58.374Z,101100.73
2018-11-03T16:21:27.116Z,101101.63
2018-11-03T16:23:55.826Z,101105.17
2018-11-03T16:26:24.669Z,101109.55
2018-11-03T16:28:53.140Z,101113.97
2018-11-03T16:31:21.772Z,101113.45
2018-11-03T16:33:50.458Z,101107.33
2018-11-03T16:36:19.029Z,101113.52
2018-11-03T16:38:47.781Z,101114.87
2018-11-03T16:41:16.431Z,101111.42
2018-11-03T16:43:45.002Z,101117.58
2018-11-03T16:46:13.690Z,101114.97
2018-11-03T16:48:42.286Z,101114.97
2018-11-03T16:51:11.286Z,101109.75
2018-11-03T16:53:40.073Z,101113.74
2018-11-03T16:56:10.011Z,101108.94
2018-11-03T16:58:38.821Z,101118.64
2018-11-03T17:01:07.456Z,101120.38
2018-11-03T17:03:36.321Z,101118.64
2018-11-03T17:06:05.329Z,101114.67
2018-11-03T17:08:34.289Z,101113.39
2018-11-03T17:11:02.855Z,101112.94
2018-11-03T17:13:31.497Z,101112.09
2018-11-03T17:16:00.031Z,101106.39
2018-11-03T17:18:28.751Z,101107.30
2018-11-03T17:20:57.330Z,101105.63
2018-11-03T17:23:26.313Z,101102.11
2018-11-03T17:25:54.923Z,101099.47
2018-11-03T17:28:23.730Z,101099.50
2018-11-03T17:30:52.352Z,101100.86
2018-11-03T17:33:20.981Z,101103.08
2018-11-03T17:35:49.650Z,101101.78
2018-11-03T17:38:18.249Z,101106.20
2018-11-03T17:40:46.946Z,101110.16
2018-11-03T17:43:15.587Z,101109.26
2018-11-03T17:45:44.350Z,101107.94
2018-11-03T17:48:12.807Z,101109.65
2018-11-03T17:50:41.572Z,101111.84
2018-11-03T17:53:10.372Z,101110.03
2018-11-03T17:55:38.949Z,101110.52
2018-11-03T17:58:07.635Z,101105.69
2018-11-03T18:00:36.371Z,101111.00
2018-11-03T18:03:05.554Z,101113.22
2018-11-03T18:05:34.242Z,101116.73
2018-11-03T18:08:02.917Z,101112.77
2018-11-03T18:10:31.848Z,101105.23
2018-11-03T18:13:00.821Z,101107.01
2018-11-03T18:15:29.569Z,101104.78
2018-11-03T18:17:58.184Z,101105.69
2018-11-03T18:20:26.936Z,101102.17
2018-11-03T18:22:55.968Z,101099.14
2018-11-03T18:25:24.584Z,101100.50
2018-11-03T18:27:53.574Z,101094.37
2018-11-03T18:30:22.088Z,101097.89
2018-11-03T18:32:51.130Z,101094.37
2018-11-03T18:35:19.738Z,101089.12
2018-11-03T18:37:48.383Z,101084.30
2018-11-03T18:40:17.952Z,101090.93
2018-11-03T18:42:46.486Z,101092.70
2018-11-03T18:45:15.293Z,101090.58
2018-11-03T18:47:43.889Z,101086.19
2018-11-03T18:50:14.379Z,101087.52
2018-11-03T18:52:43.444Z,101089.28
2018-11-03T18:55:13.135Z,101084.42
2018-11-03T18:57:42.502Z,101089.70
2018-11-03T19:00:11.772Z,101094.53
2018-11-03T19:02:41.595Z,101090.58
2018-11-03T19:05:10.512Z,101087.48
2018-11-03T19:07:39.179Z,101089.25
2018-11-03T19:10:08.693Z,101083.13
2018-11-03T19:12:37.367Z,101083.62
2018-11-03T19:15:06.989Z,101085.84
2018-11-03T19:17:36.559Z,101081.45
2018-11-03T19:20:06.793Z,101083.22
2018-11-03T19:22:35.948Z,101085.45
2018-11-03T19:25:04.760Z,101078.39
2018-11-03T19:27:33.478Z,101084.16
2018-11-03T19:30:02.161Z,101081.52
2018-11-03T19:32:30.754Z,101076.69
2018-11-03T19:34:59.299Z,101078.01
2018-11-03T19:37:28.018Z,101081.03
2018-11-03T19:39:56.617Z,101081.45
2018-11-03T19:42:25.253Z,101089.80
2018-11-03T19:44:53.861Z,101086.73
2018-11-03T19:47:22.866Z,101093.30
2018-11-03T19:49:51.508Z,101087.13
2018-11-03T19:52:20.203Z,101084.52
2018-11-03T19:54:48.664Z,101086.26
2018-11-03T19:57:17.272Z,101088.90
2018-11-03T19:59:46.032Z,101085.77
2018-11-03T20:02:14.858Z,101086.70
2018-11-03T20:04:43.362Z,101078.75
2018-11-03T20:07:12.141Z,101077.91
2018-11-03T20:09:40.665Z,101076.11
2018-11-03T20:12:09.516Z,101071.31
2018-11-03T20:14:37.971Z,101074.37
2018-11-03T20:17:06.721Z,101071.73
2018-11-03T20:19:35.229Z,101065.97
2018-11-03T20:22:04.074Z,101064.23
2018-11-03T20:24:32.694Z,101068.22
2018-11-03T20:27:01.564Z,101071.70
2018-11-03T20:29:30.046Z,101066.45
2018-11-03T20:31:58.588Z,101065.97
2018-11-03T20:34:27.442Z,101060.72
2018-11-03T20:36:56.153Z,101053.70
2018-11-03T20:39:25.065Z,101042.76
2018-11-03T20:41:53.878Z,101047.62
2018-11-03T20:44:22.464Z,101044.56
2018-11-03T20:46:51.239Z,101037.95
2018-11-03T20:49:19.799Z,101036.19
2018-11-03T20:51:48.587Z,101041.86
2018-11-03T20:54:18.290Z,101040.12
2018-11-03T20:56:46.875Z,101038.38
2018-11-03T20:59:15.595Z,101033.58
2018-11-03T21:01:44.433Z,101030.88
2018-11-03T21:04:13.113Z,101033.09
2018-11-03T21:06:41.749Z,101038.38
2018-11-03T21:09:11.074Z,101033.06
2018-11-03T21:11:39.921Z,101030.42
2018-11-03T21:14:08.372Z,101033.52
2018-11-03T21:16:37.109Z,101027.40
2018-11-03T21:22:38.583Z,101019.48
2018-11-03T21:25:07.470Z,101025.59
2018-11-03T21:27:36.271Z,101019.93
2018-11-03T21:30:06.323Z,101012.11
2018-11-03T21:32:34.893Z,101014.72
2018-11-03T21:35:04.260Z,101008.53
2018-11-03T21:37:32.780Z,101013.36
2018-11-03T21:40:01.475Z,101011.14
2018-11-03T21:42:30.034Z,101004.58
2018-11-03T21:44:58.746Z,101005.45
2018-11-03T21:47:27.420Z,100994.41
2018-11-03T21:49:56.010Z,100995.72
2018-11-03T21:52:24.598Z,100996.20
2018-11-03T21:54:53.051Z,100991.83
2018-11-03T21:57:23.504Z,100991.44
2018-11-03T21:59:52.054Z,100987.09
2018-11-03T22:02:20.482Z,100981.40
2018-11-03T22:04:50.024Z,100981.44
2018-11-03T22:07:18.776Z,100980.14
2018-11-03T22:09:47.552Z,100986.33
2018-11-03T22:12:16.018Z,100991.12
2018-11-03T22:14:45.661Z,100976.64
2018-11-03T22:17:14.734Z,100979.66
2018-11-03T22:19:43.267Z,100972.16
2018-11-03T22:22:11.749Z,100970.78
2018-11-03T22:24:40.206Z,100966.88
2018-11-03T22:27:08.923Z,100965.63
2018-11-03T22:29:37.373Z,100963.89
2018-11-03T22:32:06.066Z,100957.30
2018-11-03T22:34:35.094Z,100956.00
2018-11-03T22:37:03.713Z,100953.33
2018-11-03T22:39:32.369Z,100956.91
2018-11-03T22:42:00.897Z,100959.97
2018-11-03T22:44:30.367Z,100954.23
2018-11-03T22:47:00.287Z,100950.31
2018-11-03T22:49:28.843Z,100950.77
2018-11-03T22:51:57.346Z,100948.98
2018-11-03T22:54:25.889Z,100944.12
2018-11-03T22:56:54.660Z,100941.08
2018-11-03T22:59:23.248Z,100939.78
2018-11-03T23:01:51.727Z,100941.56
2018-11-03T23:04:20.220Z,100941.56
2018-11-03T23:06:48.929Z,100941.56
2018-11-03T23:09:17.517Z,100942.42
2018-11-03T23:11:46.585Z,100937.59
2018-11-03T23:14:15.073Z,100937.14
2018-11-03T23:16:43.655Z,100936.24
2018-11-03T23:19:12.379Z,100936.28
2018-11-03T23:21:40.897Z,100935.37
2018-11-03T23:24:09.480Z,100928.78
2018-11-03T23:26:38.209Z,100930.09
2018-11-03T23:29:06.844Z,100919.54
2018-11-03T23:31:35.591Z,100915.58
2018-11-03T23:38:40.689Z,100905.92
2018-11-03T23:41:10.197Z,100902.88
2018-11-03T23:43:38.847Z,100901.55
2018-11-03T23:46:07.483Z,100896.23
2018-11-03T23:48:35.874Z,100889.64
2018-11-03T23:51:04.418Z,100889.19
2018-11-03T23:53:32.988Z,100885.27
2018-11-03T23:56:03.876Z,100883.08
2018-11-03T23:58:32.522Z,100878.67
